Time;durP1;ratioP1;P1;durP2;ratioP2;P2;SDS_P1;SDS_P2;PMS_P1;PMS_P2;Temp;Humidity;BMP_temperature;BMP_pressure;BME280_temperature;BME280_humidity;BME280_pressure;Samples;Min_cycle;Max_cycle;Signal;HPM_P1;HPM_P2
2023/12/20 00:00:04;;;;;;;15.30;11.30;;;;;;;6.59;99.00;99617.99;112853;242;39201;-63
2023/12/20 00:02:37;;;;;;;;;;;;;;;6.60;99.05;99614.98;112692;242;183052;-63
2023/12/20 00:05:12;;;;;;;11.80;10.50;;;;;;;6.58;99.02;99611.45;112781;242;39261;-62
2023/12/20 00:07:46;;;;;;;14.50;11.20;;;;;;;6.58;99.17;99609.14;112852;242;41629;-61
2023/12/20 00:10:20;;;;;;;13.20;10.70;;;;;;;6.58;99.25;99606.30;112896;242;40965;-61
2023/12/20 00:12:54;;;;;;;14.60;10.60;;;;;;;6.58;99.11;99601.27;112894;242;39422;-63
2023/12/20 00:15:28;;;;;;;12.20;10.20;;;;;;;6.58;99.07;99596.66;112742;241;154602;-61
2023/12/20 00:18:03;;;;;;;12.60;10.30;;;;;;;6.55;99.27;99598.53;112918;242;39843;-62
2023/12/20 00:20:37;;;;;;;10.60;9.50;;;;;;;6.59;99.21;99598.34;112857;242;39599;-60
2023/12/20 00:23:11;;;;;;;13.00;10.10;;;;;;;6.57;99.25;99600.70;112843;242;39471;-57
2023/12/20 00:25:45;;;;;;;12.60;9.60;;;;;;;6.55;99.32;99597.63;112857;242;40510;-60
2023/12/20 00:28:19;;;;;;;14.70;11.00;;;;;;;6.58;99.23;99603.44;112853;242;39559;-62
2023/12/20 00:30:52;;;;;;;12.80;9.80;;;;;;;6.57;99.31;99594.63;112865;242;40039;-58
2023/12/20 00:33:26;;;;;;;11.60;9.50;;;;;;;6.58;99.30;99591.73;112842;242;40360;-58
2023/12/20 00:36:00;;;;;;;11.80;9.70;;;;;;;6.58;99.21;99588.05;112809;242;40107;-61
2023/12/20 00:38:34;;;;;;;13.00;9.90;;;;;;;6.58;99.39;99590.33;112705;241;154556;-61
2023/12/20 00:41:07;;;;;;;12.40;9.60;;;;;;;6.57;99.32;99593.69;112859;242;39719;-59
2023/12/20 00:43:41;;;;;;;13.20;10.40;;;;;;;6.58;99.40;99588.71;112853;242;41554;-59
2023/12/20 00:46:15;;;;;;;12.60;10.00;;;;;;;6.60;99.49;99585.02;112853;242;39683;-60
2023/12/20 00:48:49;;;;;;;12.70;10.40;;;;;;;6.59;99.43;99582.56;112845;242;39920;-60
2023/12/20 00:51:23;;;;;;;11.60;10.00;;;;;;;6.61;99.50;99580.54;112834;242;40788;-60
2023/12/20 00:53:57;;;;;;;12.20;9.60;;;;;;;6.65;99.31;99579.82;112882;242;39673;-60
2023/12/20 00:56:30;;;;;;;11.40;9.80;;;;;;;6.66;99.34;99578.34;112764;242;154676;-63
2023/12/20 00:59:04;;;;;;;12.10;10.80;;;;;;;6.68;99.38;99572.75;112862;242;39846;-63
2023/12/20 01:01:38;;;;;;;13.10;10.40;;;;;;;6.71;99.21;99570.20;112874;242;38760;-62
2023/12/20 01:04:12;;;;;;;12.90;10.30;;;;;;;6.68;99.23;99570.33;112744;241;154243;-62
2023/12/20 01:06:45;;;;;;;14.80;11.30;;;;;;;6.68;99.28;99566.10;112883;242;39617;-62
2023/12/20 01:09:19;;;;;;;13.10;10.90;;;;;;;6.68;99.29;99571.22;112744;241;154602;-63
2023/12/20 01:11:53;;;;;;;11.50;9.80;;;;;;;6.65;99.46;99573.17;112913;242;39582;-59
2023/12/20 01:14:27;;;;;;;11.60;9.90;;;;;;;6.71;99.22;99567.38;112762;241;154424;-60
2023/12/20 01:17:01;;;;;;;12.10;9.50;;;;;;;6.73;99.24;99567.75;112855;242;39614;-64
2023/12/20 01:19:35;;;;;;;11.30;9.70;;;;;;;6.72;99.30;99568.20;112882;242;39242;-64
2023/12/20 01:22:08;;;;;;;11.60;9.60;;;;;;;6.72;99.38;99573.14;112775;240;155152;-60
2023/12/20 01:24:42;;;;;;;13.50;8.80;;;;;;;6.71;99.34;99568.36;112833;242;39340;-60
2023/12/20 01:27:16;;;;;;;11.50;10.00;;;;;;;6.73;99.44;99558.50;112692;241;155438;-59
2023/12/20 01:29:50;;;;;;;12.20;9.10;;;;;;;6.72;99.40;99555.27;112857;242;39872;-59
2023/12/20 01:32:24;;;;;;;10.90;8.80;;;;;;;6.72;99.39;99553.39;112716;241;154721;-62
2023/12/20 01:34:58;;;;;;;9.70;8.50;;;;;;;6.73;99.33;99550.98;112836;242;39617;-61
2023/12/20 01:37:31;;;;;;;11.80;9.10;;;;;;;6.73;99.31;99544.34;112871;242;39121;-57
2023/12/20 01:40:06;;;;;;;10.20;8.30;;;;;;;6.70;99.32;99544.14;112699;241;155384;-57
2023/12/20 01:42:40;;;;;;;11.10;8.60;;;;;;;6.70;99.42;99546.33;112854;242;39792;-59
2023/12/20 01:45:14;;;;;;;10.70;8.20;;;;;;;6.72;99.38;99547.70;112754;241;154428;-60
2023/12/20 01:47:48;;;;;;;10.20;8.00;;;;;;;6.73;99.40;99551.11;112849;242;39119;-58
2023/12/20 01:50:22;;;;;;;9.70;8.40;;;;;;;6.75;99.38;99548.00;112741;241;155390;-59
2023/12/20 01:52:59;;;;;;;9.60;7.90;;;;;;;6.76;99.39;99546.23;112843;242;39330;-59
2023/12/20 01:55:37;;;;;;;10.30;8.00;;;;;;;6.77;99.35;99543.69;112867;242;39225;-60
2023/12/20 01:58:12;;;;;;;10.30;8.10;;;;;;;6.70;99.41;99536.48;112605;242;155506;-60
2023/12/20 02:00:45;;;;;;;8.80;7.30;;;;;;;6.73;99.46;99537.06;112863;243;40394;-61
2023/12/20 02:03:21;;;;;;;10.90;7.30;;;;;;;6.73;99.50;99536.16;112736;241;154159;-59
2023/12/20 02:05:55;;;;;;;8.70;6.90;;;;;;;6.73;99.44;99539.34;112833;242;40367;-62
2023/12/20 02:08:29;;;;;;;8.50;7.40;;;;;;;6.72;99.44;99535.70;112724;241;154811;-63
2023/12/20 02:11:03;;;;;;;9.60;7.00;;;;;;;6.69;99.58;99532.11;112846;242;39369;-64
2023/12/20 02:13:37;;;;;;;8.40;7.10;;;;;;;6.71;99.42;99526.34;112855;242;39870;-63
2023/12/20 02:16:11;;;;;;;10.90;7.00;;;;;;;6.74;99.54;99525.11;112698;241;155745;-62
2023/12/20 02:18:46;;;;;;;8.10;7.10;;;;;;;6.76;99.35;99526.30;112821;242;40596;-63
2023/12/20 02:21:21;;;;;;;7.10;6.10;;;;;;;6.72;99.37;99520.45;112720;241;154292;-65
2023/12/20 02:23:55;;;;;;;7.70;6.20;;;;;;;6.77;99.29;99515.27;112876;242;39663;-65
2023/12/20 02:26:29;;;;;;;8.90;6.70;;;;;;;6.77;99.35;99514.73;112748;241;154584;-63
2023/12/20 02:29:03;;;;;;;7.90;7.10;;;;;;;6.78;99.33;99515.21;112864;242;39964;-62
2023/12/20 02:31:37;;;;;;;7.50;6.30;;;;;;;6.76;99.30;99510.18;112888;242;40820;-63
2023/12/20 02:34:11;;;;;;;7.50;6.10;;;;;;;6.77;99.37;99504.59;112737;240;155226;-63
2023/12/20 02:36:44;;;;;;;7.50;6.00;;;;;;;6.74;99.31;99497.57;112887;242;40052;-64
2023/12/20 02:39:19;;;;;;;7.30;5.80;;;;;;;6.70;99.35;99503.24;112695;241;154098;-63
2023/12/20 02:41:51;;;;;;;;;;;;;;;6.71;99.50;99505.28;112885;242;39521;-62
2023/12/20 02:44:25;;;;;;;8.10;6.60;;;;;;;6.69;99.55;99492.61;112736;241;140692;-62
2023/12/20 02:46:58;;;;;;;7.40;6.30;;;;;;;6.72;99.51;99496.84;112846;242;39752;-64
2023/12/20 02:49:32;;;;;;;6.90;5.80;;;;;;;6.73;99.59;99498.95;112839;242;39290;-63
2023/12/20 02:52:06;;;;;;;6.90;5.70;;;;;;;6.75;99.52;99492.75;112722;241;154294;-61
2023/12/20 02:54:40;;;;;;;7.10;6.20;;;;;;;6.78;99.47;99490.36;112854;242;39831;-60
2023/12/20 02:57:14;;;;;;;6.70;5.30;;;;;;;6.83;99.35;99487.65;112716;241;155145;-59
2023/12/20 02:59:48;;;;;;;6.50;5.30;;;;;;;6.82;99.25;99488.13;112720;242;42016;-59
2023/12/20 03:02:22;;;;;;;5.90;5.10;;;;;;;6.83;99.28;99495.50;112758;241;154367;-58
2023/12/20 03:04:55;;;;;;;6.80;5.10;;;;;;;6.82;99.23;99491.29;112839;242;39075;-58
2023/12/20 03:07:29;;;;;;;5.90;5.30;;;;;;;6.82;99.30;99487.42;112840;242;39942;-59
2023/12/20 03:10:03;;;;;;;6.80;5.30;;;;;;;6.78;99.32;99483.05;112708;241;154161;-60
2023/12/20 03:12:37;;;;;;;7.80;5.40;;;;;;;6.76;99.37;99483.17;112887;242;39169;-63
2023/12/20 03:15:12;;;;;;;5.60;4.70;;;;;;;6.73;99.42;99483.86;112754;241;154455;-63
2023/12/20 03:17:46;;;;;;;7.50;5.40;;;;;;;6.74;99.45;99473.58;112867;242;39118;-60
2023/12/20 03:20:19;;;;;;;6.40;5.30;;;;;;;6.67;99.54;99466.55;112716;241;154767;-60
2023/12/20 03:22:53;;;;;;;6.00;5.20;;;;;;;6.66;99.62;99477.44;112829;242;39611;-63
2023/12/20 03:25:27;;;;;;;5.50;4.80;;;;;;;6.70;99.44;99486.45;112858;242;39558;-61
2023/12/20 03:28:01;;;;;;;9.00;5.50;;;;;;;6.69;99.62;99483.09;112703;241;154300;-57
2023/12/20 03:30:35;;;;;;;4.90;4.00;;;;;;;6.71;99.62;99485.23;112869;242;39219;-57
2023/12/20 03:33:09;;;;;;;6.00;5.00;;;;;;;6.75;99.54;99478.63;112704;241;154751;-58
2023/12/20 03:35:43;;;;;;;5.70;4.70;;;;;;;6.74;99.48;99471.39;112839;242;41429;-58
2023/12/20 03:38:17;;;;;;;6.20;4.80;;;;;;;6.76;99.50;99478.64;112724;241;154570;-59
2023/12/20 03:40:50;;;;;;;6.30;5.40;;;;;;;6.79;99.44;99469.88;112827;242;39694;-62
2023/12/20 03:43:24;;;;;;;5.90;5.10;;;;;;;6.77;99.50;99468.13;112831;242;39416;-63
2023/12/20 03:45:58;;;;;;;6.50;5.20;;;;;;;6.75;99.54;99469.98;112724;241;154311;-62
2023/12/20 03:48:32;;;;;;;6.50;5.10;;;;;;;6.75;99.55;99469.13;112839;242;40196;-63
2023/12/20 03:51:06;;;;;;;5.60;5.00;;;;;;;6.78;99.45;99469.46;112740;241;154271;-63
2023/12/20 03:53:40;;;;;;;6.20;5.40;;;;;;;6.80;99.43;99471.30;112837;242;39977;-64
2023/12/20 03:56:14;;;;;;;5.70;5.10;;;;;;;6.81;99.56;99472.97;112744;241;154410;-63
2023/12/20 03:58:48;;;;;;;6.30;5.20;;;;;;;6.85;99.40;99471.85;112850;242;39032;-64
2023/12/20 04:01:22;;;;;;;5.60;5.10;;;;;;;6.86;99.38;99463.83;112887;242;39474;-64
2023/12/20 04:03:55;;;;;;;7.10;5.20;;;;;;;6.86;99.39;99458.98;112741;241;154920;-66
2023/12/20 04:06:29;;;;;;;6.30;5.70;;;;;;;6.87;99.32;99463.58;112881;242;40600;-64
2023/12/20 04:09:03;;;;;;;6.10;5.40;;;;;;;6.83;99.43;99469.69;112718;241;154330;-64
2023/12/20 04:11:37;;;;;;;8.30;6.20;;;;;;;6.76;99.58;99468.44;112863;242;39658;-59
2023/12/20 04:14:11;;;;;;;6.40;5.40;;;;;;;6.75;99.40;99466.40;112795;242;39108;-59
2023/12/20 04:16:45;;;;;;;7.20;6.20;;;;;;;6.76;99.53;99466.70;112642;243;40457;-59
2023/12/20 04:19:19;;;;;;;6.80;5.90;;;;;;;6.75;99.45;99468.39;112784;243;40264;-58
2023/12/20 04:21:53;;;;;;;7.40;6.00;;;;;;;6.74;99.41;99469.61;112721;243;154780;-58
2023/12/20 04:24:26;;;;;;;6.90;6.20;;;;;;;6.73;99.59;99464.86;112875;243;41378;-58
2023/12/20 04:27:00;;;;;;;7.20;6.50;;;;;;;6.77;99.69;99462.02;112723;241;154417;-62
2023/12/20 04:29:34;;;;;;;7.00;6.20;;;;;;;6.76;99.68;99462.70;112817;243;39135;-62
2023/12/20 04:32:09;;;;;;;7.60;6.10;;;;;;;6.75;99.70;99469.12;112799;243;39245;-58
2023/12/20 04:34:43;;;;;;;6.30;5.70;;;;;;;6.77;99.71;99467.59;112680;243;41984;-57
2023/12/20 04:37:16;;;;;;;7.00;5.50;;;;;;;6.75;99.57;99465.16;112861;243;39726;-59
2023/12/20 04:39:50;;;;;;;6.40;5.70;;;;;;;6.72;99.68;99466.09;112754;243;154610;-59
2023/12/20 04:42:24;;;;;;;6.00;5.40;;;;;;;6.71;99.57;99468.34;112900;243;40222;-58
2023/12/20 04:44:58;;;;;;;8.40;5.60;;;;;;;6.69;99.53;99467.02;112841;243;39952;-58
2023/12/20 04:47:31;;;;;;;6.30;5.10;;;;;;;6.69;99.47;99469.02;112878;243;39003;-59
2023/12/20 04:50:07;;;;;;;5.50;5.00;;;;;;;6.68;99.45;99466.37;112814;242;40022;-59
2023/12/20 04:52:40;;;;;;;7.70;5.40;;;;;;;6.69;99.33;99465.58;112827;243;38984;-59
2023/12/20 04:55:14;;;;;;;7.00;5.50;;;;;;;6.71;99.43;99469.23;112871;243;39772;-59
2023/12/20 04:57:48;;;;;;;6.60;5.50;;;;;;;6.66;99.42;99467.54;112698;241;154408;-57
2023/12/20 05:00:23;;;;;;;7.80;6.10;;;;;;;6.68;99.37;99467.80;112818;243;39441;-58
2023/12/20 05:02:55;;;;;;;;;;;;;;;6.68;99.29;99468.67;112698;241;154171;-61
2023/12/20 05:05:29;;;;;;;8.80;6.50;;;;;;;6.70;99.41;99464.36;112651;243;40409;-57
2023/12/20 05:08:03;;;;;;;8.30;6.80;;;;;;;6.67;99.40;99455.40;112804;243;39310;-61
2023/12/20 05:10:37;;;;;;;7.30;6.50;;;;;;;6.68;99.40;99456.03;112637;241;155161;-60
2023/12/20 05:13:11;;;;;;;7.20;6.20;;;;;;;6.71;99.28;99458.17;112860;243;40044;-58
2023/12/20 05:15:45;;;;;;;8.20;7.30;;;;;;;6.68;99.32;99448.77;112673;242;154403;-59
2023/12/20 05:18:19;;;;;;;8.30;7.20;;;;;;;6.68;99.33;99441.55;112829;243;39802;-61
2023/12/20 05:20:53;;;;;;;8.20;7.00;;;;;;;6.70;99.37;99442.32;112685;243;154601;-58
2023/12/20 05:23:27;;;;;;;8.20;7.30;;;;;;;6.68;99.41;99441.91;112719;243;39842;-57
2023/12/20 05:26:01;;;;;;;8.90;7.50;;;;;;;6.65;99.48;99445.52;112823;243;40024;-60
2023/12/20 05:28:35;;;;;;;7.90;7.00;;;;;;;6.64;99.51;99442.45;112631;241;155155;-59
2023/12/20 05:31:09;;;;;;;8.70;7.70;;;;;;;6.69;99.47;99443.45;112836;243;39128;-55
2023/12/20 05:33:43;;;;;;;8.90;8.00;;;;;;;6.69;99.46;99442.37;112609;242;154177;-55
2023/12/20 05:36:17;;;;;;;9.10;8.10;;;;;;;6.67;99.43;99443.69;112784;243;40919;-56
2023/12/20 05:38:50;;;;;;;8.50;7.70;;;;;;;6.65;99.44;99441.80;112711;241;155332;-56
2023/12/20 05:41:24;;;;;;;9.00;7.50;;;;;;;6.61;99.56;99443.48;112782;243;39984;-59
2023/12/20 05:43:59;;;;;;;8.30;7.50;;;;;;;6.59;99.71;99441.59;112803;243;39025;-59
2023/12/20 05:46:31;;;;;;;;;;;;;;;6.60;99.77;99439.91;112533;242;154283;-59
2023/12/20 05:49:05;;;;;;;10.00;8.10;;;;;;;6.59;99.86;99439.79;112826;243;39943;-59
2023/12/20 05:51:38;;;;;;;9.00;7.50;;;;;;;6.61;99.64;99438.61;112650;241;154619;-59
2023/12/20 05:54:12;;;;;;;8.90;8.00;;;;;;;6.65;99.68;99434.98;112808;243;39633;-59
2023/12/20 05:56:45;;;;;;;;;;;;;;;6.67;99.76;99433.15;112657;242;155196;-56
2023/12/20 05:59:19;;;;;;;8.50;7.60;;;;;;;6.65;99.72;99433.34;112691;243;39816;-56
2023/12/20 06:01:53;;;;;;;9.10;7.80;;;;;;;6.67;99.73;99431.84;112810;243;40114;-60
2023/12/20 06:04:26;;;;;;;8.90;7.80;;;;;;;6.67;99.66;99428.86;112584;241;155380;-60
2023/12/20 06:07:00;;;;;;;9.10;7.90;;;;;;;6.64;99.60;99427.88;112840;243;39790;-59
2023/12/20 06:09:34;;;;;;;9.00;8.10;;;;;;;6.63;99.68;99432.32;112639;235;157732;-59
2023/12/20 06:12:10;;;;;;;9.10;8.10;;;;;;;6.61;99.71;99439.14;112706;243;41300;-59
2023/12/20 06:14:44;;;;;;;9.20;8.20;;;;;;;6.60;99.70;99439.02;112611;241;154548;-60
2023/12/20 06:17:17;;;;;;;8.40;7.60;;;;;;;6.58;99.78;99437.98;112878;243;39156;-57
2023/12/20 06:19:51;;;;;;;8.70;7.80;;;;;;;6.53;99.69;99440.48;112867;243;39264;-57
2023/12/20 06:22:25;;;;;;;9.70;8.10;;;;;;;6.53;99.82;99440.50;112533;243;154215;-61
2023/12/20 06:24:59;;;;;;;8.30;7.50;;;;;;;6.51;99.77;99439.50;112801;243;39372;-60
2023/12/20 06:27:32;;;;;;;9.10;8.20;;;;;;;6.48;99.83;99441.59;112711;241;154422;-57
2023/12/20 06:30:09;;;;;;;8.50;7.70;;;;;;;6.48;99.84;99445.17;112857;243;40439;-57
2023/12/20 06:32:42;;;;;;;9.70;8.50;;;;;;;6.48;99.88;99445.84;112697;243;155505;-60
2023/12/20 06:35:16;;;;;;;9.80;8.80;;;;;;;6.47;99.86;99447.27;112661;243;40392;-59
2023/12/20 06:37:50;;;;;;;9.70;8.70;;;;;;;6.44;99.95;99445.55;112719;243;39772;-60
2023/12/20 06:40:24;;;;;;;10.70;8.60;;;;;;;6.39;99.98;99442.11;112700;241;154955;-58
2023/12/20 06:42:59;;;;;;;9.90;8.60;;;;;;;6.36;99.98;99440.27;112846;243;39744;-57
2023/12/20 06:45:33;;;;;;;8.70;7.80;;;;;;;6.36;100.00;99444.23;112617;243;154792;-57
2023/12/20 06:48:09;;;;;;;9.20;8.20;;;;;;;6.36;100.00;99446.83;112684;243;41086;-57
2023/12/20 06:50:44;;;;;;;9.00;8.10;;;;;;;6.38;100.00;99445.73;112679;241;154774;-62
2023/12/20 06:53:17;;;;;;;8.40;7.20;;;;;;;6.39;100.00;99446.63;112854;243;39477;-61
2023/12/20 06:55:51;;;;;;;8.60;7.70;;;;;;;6.38;100.00;99444.70;112864;243;40701;-60
2023/12/20 06:58:25;;;;;;;9.20;8.30;;;;;;;6.37;100.00;99442.14;112543;243;155025;-59
2023/12/20 07:00:59;;;;;;;8.50;7.70;;;;;;;6.38;100.00;99442.11;112750;243;39368;-57
2023/12/20 07:03:33;;;;;;;8.30;7.50;;;;;;;6.40;100.00;99439.98;112559;241;154365;-57
2023/12/20 07:06:07;;;;;;;8.80;7.90;;;;;;;6.41;100.00;99442.52;112834;243;40190;-60
2023/12/20 07:08:43;;;;;;;8.40;7.50;;;;;;;6.41;100.00;99441.38;112633;243;155182;-61
2023/12/20 07:11:17;;;;;;;9.40;7.50;;;;;;;6.42;100.00;99436.64;112656;243;40601;-58
2023/12/20 07:13:51;;;;;;;9.70;8.00;;;;;;;6.43;100.00;99441.89;112793;243;39822;-57
2023/12/20 07:16:25;;;;;;;8.80;7.90;;;;;;;6.43;100.00;99443.30;112711;241;154493;-57
2023/12/20 07:18:59;;;;;;;8.70;7.80;;;;;;;6.45;100.00;99445.59;112862;242;39662;-57
2023/12/20 07:21:33;;;;;;;11.00;9.90;;;;;;;6.46;100.00;99448.66;112643;242;155407;-57
2023/12/20 07:24:08;;;;;;;9.30;8.10;;;;;;;6.46;100.00;99450.52;112739;243;40554;-56
2023/12/20 07:26:41;;;;;;;9.60;8.60;;;;;;;6.49;100.00;99454.80;112671;241;156312;-59
2023/12/20 07:29:15;;;;;;;9.70;8.30;;;;;;;6.50;100.00;99451.09;112802;243;40290;-60
2023/12/20 07:31:49;;;;;;;10.00;8.80;;;;;;;6.51;100.00;99453.27;112852;243;40349;-56
2023/12/20 07:34:23;;;;;;;9.60;8.70;;;;;;;6.54;100.00;99451.98;112559;243;154592;-57
2023/12/20 07:36:57;;;;;;;9.70;8.70;;;;;;;6.55;100.00;99449.02;112776;243;39197;-57
2023/12/20 07:39:31;;;;;;;9.80;8.80;;;;;;;6.58;100.00;99452.81;112654;241;154606;-58
2023/12/20 07:42:05;;;;;;;8.80;7.90;;;;;;;6.56;100.00;99447.63;112837;243;39604;-58
2023/12/20 07:44:38;;;;;;;9.50;8.10;;;;;;;6.57;100.00;99445.38;112739;243;155110;-58
2023/12/20 07:47:15;;;;;;;9.20;8.30;;;;;;;6.59;100.00;99447.46;112690;243;39115;-58
2023/12/20 07:49:49;;;;;;;9.30;8.40;;;;;;;6.63;100.00;99444.98;112828;243;39026;-57
2023/12/20 07:52:23;;;;;;;9.70;8.70;;;;;;;6.61;100.00;99445.22;112677;241;155274;-59
2023/12/20 07:54:57;;;;;;;9.30;8.30;;;;;;;6.62;100.00;99442.70;112846;243;39309;-59
2023/12/20 07:57:33;;;;;;;7.70;7.00;;;;;;;6.62;100.00;99438.70;112630;242;154395;-63
2023/12/20 08:00:09;;;;;;;8.70;7.90;;;;;;;6.61;100.00;99439.05;112694;243;40785;-64
2023/12/20 08:02:43;;;;;;;9.00;8.10;;;;;;;6.63;100.00;99438.23;112256;241;490276;-60
2023/12/20 08:05:17;;;;;;;10.10;8.10;;;;;;;6.62;100.00;99439.40;112697;243;39499;-59
2023/12/20 08:07:50;;;;;;;11.30;7.50;;;;;;;6.63;100.00;99441.52;112837;243;39641;-61
2023/12/20 08:10:24;;;;;;;8.80;7.80;;;;;;;6.69;100.00;99442.14;112542;242;155182;-60
2023/12/20 08:12:58;;;;;;;7.70;6.90;;;;;;;6.72;100.00;99440.04;112628;243;42687;-57
2023/12/20 08:15:33;;;;;;;7.60;6.80;;;;;;;6.76;100.00;99441.64;112565;242;154148;-58
2023/12/20 08:18:07;;;;;;;7.60;6.80;;;;;;;6.82;100.00;99441.96;112741;243;39452;-62
2023/12/20 08:20:41;;;;;;;8.10;7.20;;;;;;;6.80;100.00;99439.66;112629;241;154570;-62
2023/12/20 08:23:16;;;;;;;8.90;6.90;;;;;;;6.83;100.00;99438.59;112720;243;41056;-63
2023/12/20 08:25:51;;;;;;;6.90;6.20;;;;;;;6.84;100.00;99437.23;112824;243;40158;-60
2023/12/20 08:28:25;;;;;;;8.00;7.20;;;;;;;6.78;100.00;99435.77;112593;243;154459;-60
2023/12/20 08:30:59;;;;;;;7.60;6.20;;;;;;;6.81;100.00;99431.91;112849;243;39204;-60
2023/12/20 08:33:33;;;;;;;6.50;5.90;;;;;;;6.84;100.00;99433.08;112626;242;154445;-60
2023/12/20 08:36:08;;;;;;;7.50;6.60;;;;;;;6.87;99.99;99428.64;112809;243;39886;-63
2023/12/20 08:38:42;;;;;;;7.30;6.00;;;;;;;6.87;100.00;99428.61;112862;242;39701;-63
2023/12/20 08:41:17;;;;;;;5.90;5.10;;;;;;;6.89;99.99;99423.22;112847;243;39735;-62
2023/12/20 08:43:50;;;;;;;6.50;5.90;;;;;;;6.89;99.96;99431.56;112861;243;39962;-63
2023/12/20 08:46:25;;;;;;;6.60;6.00;;;;;;;6.89;99.96;99424.65;112648;243;155249;-60
2023/12/20 08:48:58;;;;;;;;;;;;;;;6.86;100.00;99429.47;112845;243;39032;-60
2023/12/20 08:51:33;;;;;;;6.20;5.60;;;;;;;6.89;100.00;99432.13;112696;242;140865;-59
2023/12/20 08:54:08;;;;;;;5.90;5.30;;;;;;;6.90;99.97;99426.91;112799;243;39860;-59
2023/12/20 08:56:43;;;;;;;6.60;5.40;;;;;;;6.90;99.97;99426.77;112741;242;154650;-58
2023/12/20 08:59:15;;;;;;;;;;;;;;;6.88;99.97;99426.17;112785;243;39351;-59
2023/12/20 09:01:54;;;;;;;6.40;5.80;;;;;;;6.90;99.93;99428.64;112820;243;39413;-59
2023/12/20 09:04:29;;;;;;;6.20;5.60;;;;;;;6.90;99.94;99428.23;112654;242;154308;-61
2023/12/20 09:07:04;;;;;;;6.60;5.90;;;;;;;6.92;99.90;99426.27;112831;243;39832;-59
2023/12/20 09:09:38;;;;;;;7.00;6.00;;;;;;;6.93;99.94;99417.67;112640;243;40908;-59
2023/12/20 09:12:12;;;;;;;6.30;5.70;;;;;;;6.92;99.73;99419.44;112879;243;39694;-63
2023/12/20 09:14:46;;;;;;;8.10;6.60;;;;;;;6.88;99.86;99420.02;112738;242;154466;-62
2023/12/20 09:17:22;;;;;;;7.00;5.80;;;;;;;6.89;99.82;99411.53;112788;243;40791;-60
2023/12/20 09:19:56;;;;;;;6.60;5.70;;;;;;;6.84;99.91;99408.21;112839;243;40001;-60
2023/12/20 09:22:30;;;;;;;7.00;6.00;;;;;;;6.86;99.96;99405.42;112599;242;153984;-63
2023/12/20 09:25:04;;;;;;;7.10;6.40;;;;;;;6.86;99.86;99402.53;112847;243;39126;-64
2023/12/20 09:27:38;;;;;;;7.00;6.10;;;;;;;6.87;99.93;99400.27;112762;243;154227;-61
2023/12/20 09:30:13;;;;;;;7.10;5.70;;;;;;;6.89;99.90;99396.16;112823;242;41261;-61
2023/12/20 09:32:48;;;;;;;7.20;6.50;;;;;;;6.91;99.84;99391.93;112776;241;154633;-60
2023/12/20 09:35:21;;;;;;;8.00;6.30;;;;;;;6.91;99.89;99389.09;112868;242;39361;-60
2023/12/20 09:37:56;;;;;;;7.10;6.40;;;;;;;6.92;99.92;99388.80;112908;242;39466;-63
2023/12/20 09:40:33;;;;;;;7.20;6.10;;;;;;;6.95;99.86;99388.99;112744;241;154432;-62
2023/12/20 09:43:15;;;;;;;6.90;6.20;;;;;;;6.94;99.98;99390.18;112869;242;40360;-59
2023/12/20 09:45:54;;;;;;;7.30;6.60;;;;;;;6.97;99.98;99388.85;112708;241;155038;-62
2023/12/20 09:48:29;;;;;;;6.40;5.80;;;;;;;6.99;99.91;99383.75;112854;242;38823;-62
2023/12/20 09:51:03;;;;;;;7.90;6.30;;;;;;;7.04;99.93;99385.49;112747;241;154231;-60
2023/12/20 09:53:41;;;;;;;7.60;6.20;;;;;;;7.03;99.84;99383.80;112874;242;39333;-60
2023/12/20 09:56:16;;;;;;;8.40;6.20;;;;;;;7.02;99.79;99383.94;112902;242;41626;-62
2023/12/20 09:58:50;;;;;;;7.60;6.00;;;;;;;7.05;99.81;99381.41;112707;241;154155;-64
2023/12/20 10:01:24;;;;;;;7.80;6.20;;;;;;;7.02;99.86;99373.55;112889;242;39430;-61
2023/12/20 10:04:01;;;;;;;6.70;6.00;;;;;;;7.01;99.72;99373.49;112693;241;155231;-61
2023/12/20 10:06:35;;;;;;;7.10;6.10;;;;;;;7.00;99.71;99373.77;112847;242;40138;-65
2023/12/20 15:44:16;;;;;;;12.80;8.00;;;;;;;4.49;100.00;99207.16;107852;269;603057;-59
2023/12/20 15:46:56;;;;;;;11.80;8.00;;;;;;;4.47;100.00;99199.75;110749;249;40524;-59
2023/12/20 15:49:39;;;;;;;9.50;6.90;;;;;;;4.48;100.00;99189.61;110580;246;153488;-60
2023/12/20 15:52:22;;;;;;;10.20;5.90;;;;;;;4.50;100.00;99188.45;110666;250;39419;-57
2023/12/20 15:55:03;;;;;;;;;;;;;;;4.52;100.00;99187.51;110565;246;153510;-57
2023/12/20 15:57:43;;;;;;;7.70;5.80;;;;;;;4.56;100.00;99181.23;110206;248;547232;-60
2023/12/20 16:00:21;;;;;;;12.80;6.80;;;;;;;4.63;100.00;99171.10;110579;244;154221;-61
2023/12/20 16:03:02;;;;;;;9.20;5.70;;;;;;;4.70;100.00;99169.14;110665;248;39692;-58
2023/12/20 16:05:40;;;;;;;10.80;5.50;;;;;;;4.75;100.00;99171.17;110721;248;40903;-58
2023/12/20 16:08:18;;;;;;;10.30;5.60;;;;;;;4.82;100.00;99169.09;110578;244;153404;-58
2023/12/20 16:10:56;;;;;;;9.10;5.30;;;;;;;4.86;100.00;99163.67;110702;248;40709;-57
2023/12/20 16:13:34;;;;;;;10.70;5.20;;;;;;;4.92;100.00;99165.05;110627;244;154897;-56
2023/12/20 16:16:10;;;;;;;10.70;5.20;;;;;;;4.95;100.00;99166.29;110749;248;39345;-58
2023/12/20 16:18:46;;;;;;;8.40;4.80;;;;;;;5.00;100.00;99170.14;110628;244;153800;-57
2023/12/20 16:21:23;;;;;;;10.60;4.70;;;;;;;5.02;100.00;99167.12;110772;248;40540;-60
2023/12/20 16:24:02;;;;;;;9.30;5.20;;;;;;;5.04;100.00;99170.54;110647;244;155214;-60
2023/12/20 16:26:46;;;;;;;8.90;4.70;;;;;;;5.08;100.00;99169.84;110766;248;40703;-64
2023/12/20 16:29:27;;;;;;;8.60;4.60;;;;;;;5.15;100.00;99172.66;110777;248;39696;-60
2023/12/20 16:32:08;;;;;;;7.60;4.30;;;;;;;5.16;100.00;99172.72;110586;244;154746;-60
2023/12/20 16:34:57;;;;;;;7.30;3.80;;;;;;;5.15;99.94;99174.94;110896;247;39765;-60
2023/12/20 16:37:37;;;;;;;10.50;4.30;;;;;;;5.15;99.84;99166.54;110653;244;154304;-60
2023/12/20 16:40:13;;;;;;;7.20;4.60;;;;;;;5.16;99.72;99167.63;110943;246;39830;-60
2023/12/20 16:42:52;;;;;;;8.70;5.10;;;;;;;5.19;99.50;99164.30;110805;243;153654;-60
2023/12/20 16:45:30;;;;;;;7.60;4.10;;;;;;;5.20;99.30;99161.79;110927;246;38821;-60
2023/12/20 16:48:09;;;;;;;7.40;4.10;;;;;;;5.21;99.20;99167.03;110937;247;39249;-61
2023/12/20 16:50:53;;;;;;;9.90;5.40;;;;;;;5.24;98.96;99168.88;110913;247;40869;-58
2023/12/20 16:53:30;;;;;;;6.10;4.60;;;;;;;5.24;98.81;99167.27;110918;247;39459;-57
2023/12/20 16:56:06;;;;;;;10.60;4.20;;;;;;;5.25;98.71;99165.71;110759;243;154664;-59
2023/12/20 16:58:45;;;;;;;10.20;5.00;;;;;;;5.24;98.54;99159.66;110863;246;40809;-59
2023/12/20 17:01:27;;;;;;;11.40;5.10;;;;;;;5.22;98.62;99158.06;110722;243;153687;-57
2023/12/20 17:04:04;;;;;;;10.00;5.00;;;;;;;5.22;98.46;99151.10;110862;246;41277;-58
2023/12/20 17:06:46;;;;;;;8.50;4.00;;;;;;;5.21;98.43;99148.49;110892;246;39642;-59
2023/12/20 17:09:24;;;;;;;7.70;4.80;;;;;;;5.23;98.31;99153.26;110787;246;39625;-59
2023/12/20 17:11:59;;;;;;;7.60;4.30;;;;;;;5.27;98.21;99155.04;110853;246;39448;-59
2023/12/20 17:14:37;;;;;;;10.10;4.50;;;;;;;5.23;98.15;99150.55;110731;247;39287;-59
2023/12/20 17:17:12;;;;;;;8.80;4.80;;;;;;;5.23;98.11;99149.86;110882;246;40922;-57
2023/12/20 17:19:47;;;;;;;9.50;4.80;;;;;;;5.22;98.06;99150.02;110880;247;39519;-58
2023/12/20 17:22:29;;;;;;;11.00;4.70;;;;;;;5.20;98.08;99151.48;110891;246;39793;-58
2023/12/20 17:25:06;;;;;;;9.20;4.70;;;;;;;5.19;97.73;99150.16;110816;243;153469;-60
2023/12/20 17:27:42;;;;;;;8.60;4.80;;;;;;;5.21;97.55;99148.73;111077;243;41031;-59
2023/12/20 17:30:17;;;;;;;8.00;4.60;;;;;;;5.20;97.61;99139.30;110976;241;153798;-60
2023/12/20 17:32:55;;;;;;;7.80;4.30;;;;;;;5.16;97.59;99128.44;111033;243;40363;-56
2023/12/20 17:35:38;;;;;;;11.40;5.30;;;;;;;5.14;97.67;99130.27;111010;244;39294;-56
2023/12/20 17:38:18;;;;;;;7.20;4.60;;;;;;;5.11;97.70;99127.04;110936;241;153815;-59
2023/12/20 17:40:57;;;;;;;13.90;4.70;;;;;;;5.16;97.55;99128.41;111064;243;39267;-57
2023/12/20 17:43:34;;;;;;;9.90;5.00;;;;;;;5.19;97.44;99127.51;110927;241;153677;-56
2023/12/20 17:46:10;;;;;;;9.40;4.60;;;;;;;5.18;97.39;99123.66;111054;243;39140;-56